Deus Dos Peixes — CUIA4 — position and weather

sailwx.info

Track history (hours):
 
Tides and Currents Weather Stations Pressure Air Temp Water Temp Dewpoint Dewpoint Depression Visibility Wind Speed Wind Dir Waves Ship Positions

Deus Dos Peixes

Last reported at 2018-Jul-05 19:26 UTC. Time now 2018-Jul-16 00:35 UTC.
Position N 41°11' W 008°42'.
Warning: this ship's position is 10 days out of date.

Length 10 m.

Type: Fishing. MMSI: 263415250.

Date/timePositionNaut miles runAvg speedWind from/ knotsBaromVisibWave heightAir tempDewpointWater temp
2018-Jul-05 19:26N 41°11' W 008°42'1 0.0
2018-Jul-04 13:23N 41°10' W 008°43'3 6.9
2018-Jul-04 12:55N 41°07' W 008°45'0 0.0
2018-Jul-04 00:49N 41°07' W 008°45'2 5.9
2018-Jul-04 00:30N 41°09' W 008°44'3 5.3
2018-Jul-04 00:00N 41°11' W 008°42'1 0.1
2018-Jul-03 13:25N 41°10' W 008°43'3 6.8
2018-Jul-03 13:00N 41°10' W 008°46'1 0.1
2018-Jul-03 01:11N 41°09' W 008°46'1 5.7
2018-Jul-03 01:00N 41°09' W 008°45'3 5.3
2018-Jul-03 00:30N 41°11' W 008°42'  
Track history (hours):
 
Tides and Currents Weather Stations Pressure Air Temp Water Temp Dewpoint Dewpoint Depression Visibility Wind Speed Wind Dir Waves Ship Positions

Deus Dos Peixes

Last reported at 2018-Jul-05 19:26 UTC. Time now 2018-Jul-16 00:35 UTC.
Position N 41°11' W 008°42'.
Warning: this ship's position is 10 days out of date.

Length 10 m.

Type: Fishing. MMSI: 263415250.

Date/timePositionNaut miles runAvg speedWind from/ knotsBaromVisibWave heightAir tempDewpointWater temp
2018-Jul-05 19:26N 41°11' W 008°42'1 0.0
2018-Jul-04 13:23N 41°10' W 008°43'3 6.9
2018-Jul-04 12:55N 41°07' W 008°45'0 0.0
2018-Jul-04 00:49N 41°07' W 008°45'2 5.9
2018-Jul-04 00:30N 41°09' W 008°44'3 5.3
2018-Jul-04 00:00N 41°11' W 008°42'1 0.1
2018-Jul-03 13:25N 41°10' W 008°43'3 6.8
2018-Jul-03 13:00N 41°10' W 008°46'1 0.1
2018-Jul-03 01:11N 41°09' W 008°46'1 5.7
2018-Jul-03 01:00N 41°09' W 008°45'3 5.3
2018-Jul-03 00:30N 41°11' W 008°42'  

Dump ship's entire track history